createdAt,value
2019-02-02T00:00:45.369Z,14.70
2019-02-02T00:03:17.810Z,15.13
2019-02-02T00:05:50.630Z,15.40
2019-02-02T00:08:23.370Z,15.28
2019-02-02T00:10:55.445Z,17.02
2019-02-02T00:13:28.289Z,16.77
2019-02-02T00:16:01.531Z,18.10
2019-02-02T00:18:34.437Z,19.15
2019-02-02T00:21:06.990Z,17.95
2019-02-02T00:23:38.930Z,20.00
2019-02-02T00:26:12.131Z,21.00
2019-02-02T00:28:44.730Z,20.62
2019-02-02T00:31:15.630Z,20.62
2019-02-02T00:33:48.896Z,19.40
2019-02-02T00:36:21.064Z,19.87
2019-02-02T00:38:53.169Z,21.12
2019-02-02T00:41:26.092Z,19.77
2019-02-02T00:43:59.431Z,19.35
2019-02-02T00:46:31.550Z,21.50
2019-02-02T00:49:03.650Z,21.33
2019-02-02T00:51:37.210Z,20.35
2019-02-02T00:54:10.850Z,19.48
2019-02-02T00:56:44.652Z,18.85
2019-02-02T00:59:17.469Z,19.17
2019-02-02T01:01:49.850Z,20.27
2019-02-02T01:04:22.370Z,20.57
2019-02-02T01:06:55.477Z,19.17
2019-02-02T01:09:29.252Z,19.75
2019-02-02T01:12:02.910Z,18.48
2019-02-02T01:14:35.991Z,19.25
2019-02-02T01:17:08.330Z,19.15
2019-02-02T01:19:41.409Z,19.15
2019-02-02T01:22:14.829Z,19.40
2019-02-02T01:24:48.350Z,18.20
2019-02-02T01:27:20.430Z,17.77
2019-02-02T01:29:52.571Z,19.42
2019-02-02T01:32:25.070Z,18.95
2019-02-02T01:34:57.631Z,18.27
2019-02-02T01:37:30.570Z,17.62
2019-02-02T01:40:03.713Z,19.30
2019-02-02T01:42:36.369Z,18.60
2019-02-02T01:45:10.594Z,20.10
2019-02-02T01:47:43.870Z,19.27
2019-02-02T01:50:19.266Z,18.57
2019-02-02T01:52:52.769Z,19.35
2019-02-02T01:55:26.191Z,19.90
2019-02-02T01:57:59.029Z,20.00
2019-02-02T02:00:33.712Z,20.30
2019-02-02T02:03:06.889Z,20.72
2019-02-02T02:05:39.868Z,20.40
2019-02-02T02:08:12.910Z,21.62
2019-02-02T02:10:45.610Z,21.07
2019-02-02T02:13:18.376Z,21.15
2019-02-02T02:15:51.150Z,21.33
2019-02-02T02:18:24.811Z,22.77
2019-02-02T02:20:58.430Z,22.17
2019-02-02T02:23:29.990Z,21.97
2019-02-02T02:26:03.050Z,21.60
2019-02-02T02:28:36.091Z,30.00
2019-02-02T02:31:08.931Z,21.07
2019-02-02T02:33:42.309Z,23.15
2019-02-02T02:36:15.270Z,25.15
2019-02-02T02:38:47.870Z,21.87
2019-02-02T02:41:21.051Z,19.65
2019-02-02T02:43:53.873Z,21.57
2019-02-02T02:46:26.532Z,20.82
2019-02-02T02:48:58.710Z,24.87
2019-02-02T02:51:32.130Z,24.10
2019-02-02T02:54:04.490Z,24.95
2019-02-02T02:56:37.051Z,25.20
2019-02-02T02:59:10.051Z,30.80
2019-02-02T03:01:43.010Z,25.10
2019-02-02T03:04:15.069Z,25.62
2019-02-02T03:06:47.370Z,24.55
2019-02-02T03:09:19.328Z,27.10
2019-02-02T03:11:50.290Z,51.23
2019-02-02T03:14:22.710Z,27.70
2019-02-02T03:16:55.410Z,25.23
2019-02-02T03:19:28.293Z,28.05
2019-02-02T03:22:01.509Z,26.15
2019-02-02T03:24:33.809Z,26.20
2019-02-02T03:27:06.209Z,24.18
2019-02-02T03:29:39.811Z,25.90
2019-02-02T03:32:12.051Z,23.87
2019-02-02T03:34:44.450Z,24.65
2019-02-02T03:37:17.397Z,24.47
2019-02-02T03:39:50.331Z,25.57
2019-02-02T03:42:23.972Z,25.30
2019-02-02T03:44:57.250Z,26.35
2019-02-02T03:47:29.289Z,26.75
2019-02-02T03:50:01.990Z,26.17
2019-02-02T03:52:34.872Z,29.35
2019-02-02T03:55:08.789Z,27.35
2019-02-02T03:57:42.430Z,30.97
2019-02-02T04:00:16.890Z,29.70
2019-02-02T04:02:49.929Z,28.60
2019-02-02T04:05:26.533Z,28.42
2019-02-02T04:07:58.849Z,29.30
2019-02-02T04:10:30.974Z,30.30
2019-02-02T04:13:03.550Z,31.68
2019-02-02T04:15:35.870Z,29.55
2019-02-02T04:18:08.892Z,29.92
2019-02-02T04:20:42.209Z,32.40
2019-02-02T04:23:15.430Z,31.60
2019-02-02T04:25:48.930Z,30.52
2019-02-02T04:28:22.890Z,30.80
2019-02-02T04:30:55.409Z,30.32
2019-02-02T04:33:28.111Z,30.45
2019-02-02T04:36:01.091Z,29.60
2019-02-02T04:38:34.349Z,29.05
2019-02-02T04:41:07.308Z,28.45
2019-02-02T04:43:40.108Z,29.00
2019-02-02T04:46:12.589Z,30.25
2019-02-02T04:48:45.309Z,27.52
2019-02-02T04:51:18.633Z,28.17
2019-02-02T04:53:50.691Z,30.12
2019-02-02T04:56:23.328Z,30.80
2019-02-02T04:58:56.690Z,30.25
2019-02-02T05:01:29.450Z,29.10
2019-02-02T05:04:02.471Z,31.23
2019-02-02T05:06:35.849Z,31.85
2019-02-02T05:09:09.090Z,33.00
2019-02-02T05:11:41.710Z,33.70
2019-02-02T05:14:14.689Z,33.10
2019-02-02T05:16:47.269Z,31.27
2019-02-02T05:19:20.010Z,29.55
2019-02-02T05:21:52.611Z,31.52
2019-02-02T05:24:25.069Z,31.80
2019-02-02T05:26:58.030Z,29.67
2019-02-02T05:29:40.814Z,30.92
2019-02-02T05:32:04.489Z,31.27
2019-02-02T05:34:37.009Z,31.00
2019-02-02T05:37:09.730Z,30.02
2019-02-02T05:39:41.929Z,29.40
2019-02-02T05:42:14.050Z,30.10
2019-02-02T05:44:46.749Z,27.82
2019-02-02T05:47:19.408Z,28.40
2019-02-02T05:49:51.188Z,29.32
2019-02-02T05:52:23.912Z,29.75
2019-02-02T05:54:56.930Z,31.23
2019-02-02T05:57:30.232Z,30.50
2019-02-02T06:00:02.534Z,31.20
2019-02-02T06:02:35.428Z,30.27
2019-02-02T06:05:08.568Z,30.12
2019-02-02T06:07:42.049Z,31.93
2019-02-02T06:10:15.330Z,28.45
2019-02-02T06:12:47.330Z,28.50
2019-02-02T06:15:20.329Z,25.40
2019-02-02T06:17:53.171Z,27.05
2019-02-02T06:20:25.450Z,25.50
2019-02-02T06:22:57.969Z,24.15
2019-02-02T06:25:31.050Z,26.12
2019-02-02T06:28:04.032Z,26.25
2019-02-02T06:30:37.811Z,27.15
2019-02-02T06:33:10.151Z,26.60
2019-02-02T06:35:43.089Z,26.12
2019-02-02T06:38:16.431Z,26.45
2019-02-02T06:40:49.529Z,28.40
2019-02-02T06:43:22.011Z,28.87
2019-02-02T06:45:54.530Z,30.37
2019-02-02T06:48:27.026Z,29.42
2019-02-02T06:50:59.229Z,29.72
2019-02-02T06:53:32.829Z,29.15
2019-02-02T06:56:05.608Z,26.42
2019-02-02T06:58:37.770Z,27.17
2019-02-02T07:01:10.470Z,26.80
2019-02-02T07:03:43.869Z,28.57
2019-02-02T07:06:15.610Z,30.55
2019-02-02T07:08:47.792Z,31.27
2019-02-02T07:11:19.929Z,30.65
2019-02-02T07:13:52.291Z,31.97
2019-02-02T07:16:25.271Z,31.25
2019-02-02T07:18:58.386Z,31.73
2019-02-02T07:21:30.814Z,30.62
2019-02-02T07:24:03.171Z,31.45
2019-02-02T07:26:36.071Z,29.80
2019-02-02T07:29:08.650Z,32.85
2019-02-02T07:31:40.709Z,33.95
2019-02-02T07:34:13.911Z,34.90
2019-02-02T07:36:46.881Z,32.60
2019-02-02T07:39:19.649Z,32.78
2019-02-02T07:41:52.611Z,35.30
2019-02-02T07:44:25.052Z,33.80
2019-02-02T07:46:59.250Z,40.17
2019-02-02T07:49:32.449Z,33.55
2019-02-02T07:52:05.452Z,38.25
2019-02-02T07:54:38.210Z,38.05
2019-02-02T07:57:10.770Z,35.30
2019-02-02T07:59:43.011Z,34.38
2019-02-02T08:02:16.489Z,36.05
2019-02-02T08:04:49.009Z,35.95
2019-02-02T08:07:22.383Z,37.38
2019-02-02T08:09:55.028Z,36.60
2019-02-02T08:12:28.108Z,37.93
2019-02-02T08:15:01.710Z,36.80
2019-02-02T08:17:35.248Z,36.93
2019-02-02T08:20:08.067Z,36.73
2019-02-02T08:22:40.348Z,37.00
2019-02-02T08:25:13.508Z,40.35
2019-02-02T08:27:46.202Z,43.52
2019-02-02T08:30:20.007Z,45.52
2019-02-02T08:32:52.446Z,41.08
2019-02-02T08:35:24.968Z,42.67
2019-02-02T08:37:58.186Z,36.48
2019-02-02T08:40:30.412Z,36.13
2019-02-02T08:43:02.335Z,36.80
2019-02-02T08:45:34.882Z,42.55
2019-02-02T08:48:06.951Z,43.33
2019-02-02T08:50:41.090Z,41.08
2019-02-02T08:53:14.534Z,42.00
2019-02-02T08:55:47.081Z,40.12
2019-02-02T08:58:20.455Z,35.00
2019-02-02T09:01:03.440Z,38.55
2019-02-02T09:03:26.533Z,38.75
2019-02-02T09:05:59.363Z,37.25
2019-02-02T09:08:31.900Z,38.30
2019-02-02T09:11:04.719Z,43.05
2019-02-02T09:13:37.049Z,39.92
2019-02-02T09:16:09.239Z,40.38
2019-02-02T09:18:41.938Z,39.53
2019-02-02T09:21:14.824Z,39.15
2019-02-02T09:23:47.205Z,36.60
2019-02-02T09:26:19.725Z,38.95
2019-02-02T09:28:52.477Z,38.55
2019-02-02T09:31:24.124Z,36.15
2019-02-02T09:33:56.944Z,35.28
2019-02-02T09:36:29.526Z,37.90
2019-02-02T09:39:02.743Z,35.60
2019-02-02T09:41:34.943Z,34.45
2019-02-02T09:44:07.523Z,34.95
2019-02-02T09:46:40.273Z,34.27
2019-02-02T09:49:12.459Z,33.02
2019-02-02T09:51:45.242Z,34.75
2019-02-02T09:54:26.321Z,57.13
2019-02-02T09:56:51.255Z,48.17
2019-02-02T09:59:24.506Z,38.73
2019-02-02T10:01:57.653Z,34.50
2019-02-02T10:04:30.954Z,29.52
2019-02-02T10:07:02.834Z,32.73
2019-02-02T10:09:35.583Z,34.98
2019-02-02T10:12:07.520Z,31.33
2019-02-02T10:14:39.741Z,27.55
2019-02-02T10:17:12.275Z,24.82
2019-02-02T10:19:45.007Z,16.73
2019-02-02T10:22:16.886Z,12.37
2019-02-02T10:24:49.508Z,8.95
2019-02-02T10:27:22.047Z,9.28
2019-02-02T10:29:53.146Z,8.20
2019-02-02T10:32:25.336Z,9.00
2019-02-02T10:34:58.266Z,8.38
2019-02-02T10:37:31.527Z,8.35
2019-02-02T10:40:04.769Z,12.18
2019-02-02T10:42:38.366Z,13.60
2019-02-02T10:45:11.266Z,18.92
2019-02-02T10:47:43.330Z,20.65
2019-02-02T10:50:16.803Z,20.25
2019-02-02T10:52:48.887Z,20.72
2019-02-02T10:55:21.386Z,20.52
2019-02-02T10:57:54.266Z,27.75
2019-02-02T11:00:34.387Z,36.28
2019-02-02T11:03:06.528Z,37.80
2019-02-02T11:05:39.650Z,40.60
2019-02-02T11:08:12.177Z,39.10
2019-02-02T11:10:45.567Z,38.33
2019-02-02T11:13:19.219Z,34.60
2019-02-02T11:15:51.643Z,35.23
2019-02-02T11:18:24.022Z,37.30
2019-02-02T11:20:56.999Z,37.80
2019-02-02T11:23:30.609Z,40.00
2019-02-02T11:26:03.837Z,37.40
2019-02-02T11:28:36.744Z,34.05
2019-02-02T11:31:08.529Z,34.70
2019-02-02T11:33:44.262Z,37.17
2019-02-02T11:36:16.250Z,29.52
2019-02-02T11:38:48.891Z,27.13
2019-02-02T11:41:22.748Z,26.73
2019-02-02T11:43:54.688Z,26.73
2019-02-02T11:46:27.671Z,25.05
2019-02-02T11:49:00.671Z,30.27
2019-02-02T11:51:34.048Z,28.07
2019-02-02T11:54:06.370Z,27.40
2019-02-02T11:56:39.349Z,29.02
2019-02-02T11:59:12.289Z,31.07
2019-02-02T12:01:45.524Z,30.57
2019-02-02T12:04:18.714Z,29.60
2019-02-02T12:06:51.131Z,30.35
2019-02-02T12:09:23.508Z,34.08
2019-02-02T12:11:56.908Z,32.00
2019-02-02T12:14:30.049Z,33.23
2019-02-02T12:17:02.248Z,32.67
2019-02-02T12:19:34.448Z,32.35
2019-02-02T12:22:07.788Z,32.42
2019-02-02T12:24:40.608Z,33.53
2019-02-02T12:27:12.948Z,33.18
2019-02-02T12:29:46.268Z,29.50
2019-02-02T12:32:26.439Z,30.02
2019-02-02T12:34:53.478Z,31.80
2019-02-02T12:37:26.009Z,29.95
2019-02-02T12:39:58.568Z,31.70
2019-02-02T12:42:31.110Z,27.42
2019-02-02T12:45:04.289Z,29.40
2019-02-02T12:47:37.477Z,30.48
2019-02-02T12:50:09.959Z,27.90
2019-02-02T12:52:42.830Z,26.70
2019-02-02T12:55:16.984Z,27.02
2019-02-02T12:57:50.376Z,26.52
2019-02-02T13:00:23.385Z,22.07
2019-02-02T13:02:57.165Z,23.00
2019-02-02T13:05:30.530Z,24.52
2019-02-02T13:08:05.335Z,27.25
2019-02-02T13:10:37.605Z,23.50
2019-02-02T13:13:10.604Z,24.00
2019-02-02T13:15:42.924Z,24.90
2019-02-02T13:18:15.183Z,25.50
2019-02-02T13:20:47.664Z,26.12
2019-02-02T13:23:21.143Z,31.17
2019-02-02T13:26:04.662Z,28.32
2019-02-02T13:28:28.604Z,25.43
2019-02-02T13:31:00.565Z,25.55
2019-02-02T13:33:33.426Z,26.07
2019-02-02T13:36:06.684Z,24.05
2019-02-02T13:38:39.704Z,28.17
2019-02-02T13:41:12.003Z,24.92
2019-02-02T13:43:44.803Z,23.52
2019-02-02T13:46:17.603Z,24.43
2019-02-02T13:48:51.075Z,23.57
2019-02-02T13:51:24.145Z,26.23
2019-02-02T13:53:56.943Z,25.35
2019-02-02T13:56:29.107Z,26.23
2019-02-02T13:59:01.324Z,25.17
2019-02-02T14:01:41.795Z,25.00
2019-02-02T14:04:07.487Z,22.75
2019-02-02T14:06:40.945Z,23.27
2019-02-02T14:09:14.223Z,24.55
2019-02-02T14:11:47.804Z,22.85
2019-02-02T14:14:19.986Z,23.42
2019-02-02T14:16:51.184Z,22.37
2019-02-02T14:19:23.670Z,22.22
2019-02-02T14:21:56.763Z,23.10
2019-02-02T14:24:30.423Z,21.87
2019-02-02T14:27:02.424Z,23.55
2019-02-02T14:29:35.024Z,24.95
2019-02-02T14:32:08.463Z,23.62
2019-02-02T14:34:42.064Z,23.75
2019-02-02T14:37:15.323Z,26.17
2019-02-02T14:39:49.254Z,26.10
2019-02-02T14:42:22.690Z,25.15
2019-02-02T14:44:55.905Z,26.60
2019-02-02T14:47:28.283Z,27.13
2019-02-02T14:50:01.425Z,26.73
2019-02-02T14:52:34.425Z,26.40
2019-02-02T14:55:06.864Z,27.42
2019-02-02T14:57:39.410Z,26.75
2019-02-02T15:00:15.790Z,26.07
2019-02-02T15:02:48.303Z,26.15
2019-02-02T15:05:22.607Z,27.02
2019-02-02T15:07:55.183Z,25.10
2019-02-02T15:10:28.148Z,22.10
2019-02-02T15:13:00.946Z,21.73
2019-02-02T15:15:32.487Z,21.15
2019-02-02T15:18:05.084Z,21.35
2019-02-02T15:20:39.224Z,21.90
2019-02-02T15:23:11.785Z,21.48
2019-02-02T15:25:43.685Z,21.73
2019-02-02T15:28:16.286Z,23.30
2019-02-02T15:30:49.266Z,24.23
2019-02-02T15:33:22.305Z,24.60
2019-02-02T15:35:54.477Z,25.60
2019-02-02T15:38:28.226Z,26.80
2019-02-02T15:41:00.584Z,28.20
2019-02-02T15:43:33.824Z,29.92
2019-02-02T15:46:06.225Z,28.12
2019-02-02T15:48:38.845Z,29.55
2019-02-02T15:51:11.923Z,27.80
2019-02-02T15:53:44.205Z,28.02
2019-02-02T15:56:16.564Z,29.70
2019-02-02T15:58:49.124Z,31.20
2019-02-02T16:01:22.383Z,29.87
2019-02-02T16:03:55.325Z,32.05
2019-02-02T16:06:27.504Z,29.40
2019-02-02T16:09:00.484Z,28.32
2019-02-02T16:11:33.005Z,28.98
2019-02-02T16:14:03.785Z,29.67
2019-02-02T16:16:37.465Z,31.62
2019-02-02T16:19:10.268Z,29.30
2019-02-02T16:21:42.152Z,27.32
2019-02-02T16:24:14.853Z,28.62
2019-02-02T16:26:48.703Z,30.20
2019-02-02T16:29:21.864Z,29.15
2019-02-02T16:31:54.704Z,29.50
2019-02-02T16:34:27.186Z,30.05
2019-02-02T16:37:00.133Z,30.92
2019-02-02T16:39:32.178Z,29.98
2019-02-02T16:42:05.345Z,30.50
2019-02-02T16:44:37.866Z,30.75
2019-02-02T16:47:10.365Z,29.87
2019-02-02T16:49:42.985Z,30.35
2019-02-02T16:52:15.564Z,32.25
2019-02-02T16:54:48.623Z,31.42
2019-02-02T16:57:21.228Z,29.30
2019-02-02T16:59:54.287Z,29.00
2019-02-02T17:02:26.645Z,30.52
2019-02-02T17:04:59.583Z,32.20
2019-02-02T17:07:32.785Z,31.97
2019-02-02T17:10:06.565Z,31.75
2019-02-02T17:12:40.473Z,29.52
2019-02-02T17:15:13.895Z,28.12
2019-02-02T17:17:46.567Z,32.23
2019-02-02T17:20:20.863Z,29.00
2019-02-02T17:22:52.925Z,29.80
2019-02-02T17:25:26.085Z,28.57
2019-02-02T17:27:58.567Z,31.75
2019-02-02T17:30:33.944Z,32.20
2019-02-02T17:33:08.285Z,39.30
2019-02-02T17:35:40.823Z,33.20
2019-02-02T17:38:13.964Z,31.97
2019-02-02T17:40:47.529Z,32.20
2019-02-02T17:43:20.643Z,31.60
2019-02-02T17:45:52.704Z,31.62
2019-02-02T17:48:25.324Z,29.65
2019-02-02T17:50:58.431Z,29.00
2019-02-02T17:53:31.465Z,30.27
2019-02-02T17:56:04.004Z,31.35
2019-02-02T17:58:39.873Z,29.82
2019-02-02T18:01:11.205Z,32.25
2019-02-02T18:03:43.846Z,31.65
2019-02-02T18:06:15.622Z,31.45
2019-02-02T18:08:48.306Z,31.35
2019-02-02T18:11:21.164Z,32.05
2019-02-02T18:13:54.224Z,32.60
2019-02-02T18:16:26.743Z,31.52
2019-02-02T18:18:58.984Z,30.55
2019-02-02T18:21:31.765Z,30.10
2019-02-02T18:24:04.526Z,29.37
2019-02-02T18:26:37.804Z,30.17
2019-02-02T18:29:11.583Z,28.02
2019-02-02T18:31:44.964Z,27.32
2019-02-02T18:34:17.387Z,27.50
2019-02-02T18:36:50.546Z,30.57
2019-02-02T18:39:22.745Z,33.35
2019-02-02T18:41:56.106Z,33.38
2019-02-02T18:44:28.943Z,34.70
2019-02-02T18:47:00.924Z,32.78
2019-02-02T18:49:34.083Z,33.18
2019-02-02T18:52:06.367Z,33.58
2019-02-02T18:54:38.423Z,34.58
2019-02-02T18:57:10.723Z,32.80
2019-02-02T18:59:43.585Z,33.58
2019-02-02T19:02:16.004Z,30.82
2019-02-02T19:04:48.703Z,35.90
2019-02-02T19:07:22.224Z,36.05
2019-02-02T19:09:55.803Z,32.70
2019-02-02T19:12:28.326Z,33.67
2019-02-02T19:15:00.424Z,32.67
2019-02-02T19:17:33.086Z,30.55
2019-02-02T19:20:07.104Z,30.12
2019-02-02T19:22:40.484Z,31.77
2019-02-02T19:25:13.345Z,31.65
2019-02-02T19:27:47.123Z,32.75
2019-02-02T19:30:22.483Z,29.72
2019-02-02T19:32:55.424Z,28.95
2019-02-02T19:35:28.204Z,28.50
2019-02-02T19:38:01.244Z,28.15
2019-02-02T19:40:33.144Z,28.38
2019-02-02T19:43:05.764Z,28.85
2019-02-02T19:45:38.983Z,27.45
2019-02-02T19:48:11.764Z,28.95
2019-02-02T19:50:44.465Z,27.45
2019-02-02T19:53:17.184Z,28.42
2019-02-02T19:55:50.364Z,29.63
2019-02-02T19:58:23.664Z,28.95
2019-02-02T20:00:56.444Z,30.12
2019-02-02T20:03:28.884Z,28.47
2019-02-02T20:06:01.489Z,35.85
2019-02-02T20:08:34.463Z,30.97
2019-02-02T20:11:08.265Z,31.05
2019-02-02T20:13:40.864Z,30.40
2019-02-02T20:16:13.585Z,30.60
2019-02-02T20:18:46.584Z,32.60
2019-02-02T20:21:17.867Z,30.00
2019-02-02T20:23:50.284Z,30.57
2019-02-02T20:26:23.348Z,34.75
2019-02-02T20:28:55.104Z,30.88
2019-02-02T20:31:27.684Z,30.80
2019-02-02T20:34:00.704Z,30.40
2019-02-02T20:36:33.424Z,30.75
2019-02-02T20:39:07.183Z,31.68
2019-02-02T20:41:40.265Z,29.75
2019-02-02T20:44:12.346Z,31.02
2019-02-02T20:46:44.686Z,32.45
2019-02-02T20:49:16.745Z,27.82
2019-02-02T20:51:50.407Z,27.90
2019-02-02T20:54:23.964Z,30.02
2019-02-02T20:56:56.545Z,33.05
2019-02-02T20:59:28.884Z,29.20
2019-02-02T21:02:01.585Z,28.35
2019-02-02T21:04:33.465Z,28.25
2019-02-02T21:07:06.463Z,30.68
2019-02-02T21:09:39.225Z,32.20
2019-02-02T21:12:11.968Z,28.75
2019-02-02T21:14:45.488Z,27.77
2019-02-02T21:17:18.364Z,28.90
2019-02-02T21:19:51.048Z,29.57
2019-02-02T21:22:23.904Z,26.37
2019-02-02T21:24:56.982Z,27.40
2019-02-02T21:27:30.444Z,27.95
2019-02-02T21:30:04.143Z,28.20
2019-02-02T21:32:36.023Z,27.32
2019-02-02T21:35:09.092Z,29.23
2019-02-02T21:37:41.807Z,28.70
2019-02-02T21:40:15.583Z,28.85
2019-02-02T21:42:47.386Z,29.98
2019-02-02T21:45:20.805Z,29.95
2019-02-02T21:47:53.643Z,28.20
2019-02-02T21:50:26.743Z,29.80
2019-02-02T21:52:59.305Z,29.45
2019-02-02T21:55:32.043Z,28.27
2019-02-02T21:58:04.735Z,29.77
2019-02-02T22:00:44.563Z,38.10
2019-02-02T22:03:17.363Z,38.48
2019-02-02T22:05:50.484Z,35.68
2019-02-02T22:08:24.394Z,36.33
2019-02-02T22:10:57.363Z,34.48
2019-02-02T22:13:29.903Z,33.38
2019-02-02T22:16:02.842Z,33.85
2019-02-02T22:18:35.364Z,36.75
2019-02-02T22:21:07.976Z,32.48
2019-02-02T22:23:40.366Z,32.30
2019-02-02T22:26:12.865Z,34.30
2019-02-02T22:28:46.207Z,33.92
2019-02-02T22:31:19.243Z,32.35
2019-02-02T22:33:51.583Z,34.20
2019-02-02T22:36:27.515Z,34.35
2019-02-02T22:38:58.684Z,35.25
2019-02-02T22:41:31.504Z,34.70
2019-02-02T22:44:03.965Z,33.02
2019-02-02T22:46:37.005Z,31.45
2019-02-02T22:49:09.884Z,31.65
2019-02-02T22:51:42.507Z,33.20
2019-02-02T22:54:15.264Z,34.83
2019-02-02T22:56:47.683Z,34.70
2019-02-02T22:59:20.365Z,33.45
2019-02-02T23:02:00.126Z,35.68
2019-02-02T23:04:50.824Z,35.10
2019-02-02T23:07:47.323Z,35.35
2019-02-02T23:10:55.723Z,35.60
2019-02-02T23:13:52.406Z,38.65
2019-02-02T23:16:41.965Z,40.12
2019-02-02T23:19:15.523Z,41.37
2019-02-02T23:21:48.026Z,40.12
2019-02-02T23:24:20.364Z,41.55
2019-02-02T23:26:53.343Z,43.15
2019-02-02T23:29:26.006Z,42.70
2019-02-02T23:31:59.724Z,43.08
2019-02-02T23:34:33.246Z,41.20
2019-02-02T23:37:06.545Z,40.83
2019-02-02T23:39:38.852Z,41.73
2019-02-02T23:42:11.546Z,41.42
2019-02-02T23:44:44.264Z,40.48
2019-02-02T23:47:16.465Z,38.42
2019-02-02T23:49:49.284Z,38.25
2019-02-02T23:52:22.043Z,39.70
2019-02-02T23:54:55.283Z,40.58
2019-02-02T23:57:28.443Z,38.00
